Time;durP1;ratioP1;P1;durP2;ratioP2;P2;SDS_P1;SDS_P2;PMS_P1;PMS_P2;Temp;Humidity;BMP_temperature;BMP_pressure;BME280_temperature;BME280_humidity;BME280_pressure;Samples;Min_cycle;Max_cycle;Signal;HPM_P1;HPM_P2
2023/01/17 00:01:11;;;;;;;15.03;13.93;;;3.80;99.90;;;;;;4970676;28;20186;-44
2023/01/17 00:09:51;;;;;;;15.27;14.18;;;3.80;99.90;;;;;;4973243;28;20441;-44
2023/01/17 00:11:59;;;;;;;16.40;15.13;;;3.70;99.90;;;;;;4974623;28;20194;-46
2023/01/17 00:14:26;;;;;;;16.00;14.80;;;3.70;99.90;;;;;;4981605;28;20692;-46
2023/01/17 00:16:52;;;;;;;15.68;14.38;;;3.80;99.90;;;;;;4973320;28;20530;-45
2023/01/17 01:34:02;;;;;;;12.05;11.35;;;5.10;99.90;;;;;;4979274;28;20234;-45
2023/01/17 01:36:28;;;;;;;12.27;11.60;;;5.10;99.90;;;;;;4982569;28;20188;-44
2023/01/17 01:38:55;;;;;;;12.03;11.33;;;5.10;99.90;;;;;;4980683;28;20227;-49
2023/01/17 01:41:21;;;;;;;12.38;11.60;;;5.20;99.90;;;;;;4970737;28;20270;-47
2023/01/17 01:43:52;;;;;;;12.05;11.35;;;5.20;99.90;;;;;;4970645;28;20192;-44
2023/01/17 01:46:27;;;;;;;11.52;10.93;;;5.20;99.90;;;;;;4978358;28;20218;-45
2023/01/17 01:49:11;;;;;;;11.85;11.20;;;5.30;99.90;;;;;;4968922;28;20213;-46
2023/01/17 01:51:51;;;;;;;11.27;10.68;;;5.30;99.90;;;;;;4972637;28;20175;-44
2023/01/17 01:54:22;;;;;;;11.68;11.00;;;5.30;99.90;;;;;;4981104;28;20192;-44
2023/01/17 01:56:51;;;;;;;11.90;11.10;;;5.30;99.90;;;;;;4980378;28;20215;-44
2023/01/17 01:59:19;;;;;;;11.13;10.52;;;5.30;99.90;;;;;;4976261;28;20235;-44
2023/01/17 02:01:46;;;;;;;11.40;10.63;;;5.30;99.90;;;;;;4971566;28;20189;-45
2023/01/17 02:04:13;;;;;;;11.68;11.05;;;5.30;99.90;;;;;;4977052;28;20714;-47
2023/01/17 02:07:05;;;;;;;10.88;10.30;;;5.40;99.90;;;;;;4969977;28;20587;-45
2023/01/17 02:09:31;;;;;;;11.43;10.82;;;5.30;99.90;;;;;;4968958;28;20289;-46
2023/01/17 02:11:57;;;;;;;11.33;10.73;;;5.40;99.90;;;;;;4977163;28;20195;-45
2023/01/17 02:14:22;;;;;;;11.30;10.70;;;5.40;99.90;;;;;;4968930;28;20591;-45
2023/01/17 02:17:09;;;;;;;11.03;10.53;;;5.30;99.90;;;;;;4969949;28;20191;-47
2023/01/17 02:20:08;;;;;;;11.13;10.52;;;5.40;99.90;;;;;;4967213;28;20274;-44
2023/01/17 02:22:52;;;;;;;11.00;10.40;;;5.40;99.90;;;;;;4971758;28;20222;-44
2023/01/17 02:25:30;;;;;;;11.25;10.65;;;5.40;99.90;;;;;;4976759;28;20188;-46
2023/01/17 02:28:20;;;;;;;11.32;10.80;;;5.30;99.90;;;;;;4975618;28;20204;-45
2023/01/17 02:30:49;;;;;;;11.00;10.50;;;5.40;99.90;;;;;;4979259;28;20539;-48
2023/01/17 02:33:26;;;;;;;11.10;10.50;;;5.40;99.90;;;;;;4970521;28;20186;-46
2023/01/17 02:36:33;;;;;;;11.45;10.80;;;5.30;99.90;;;;;;4968881;28;20195;-44
2023/01/17 02:39:23;;;;;;;11.40;10.82;;;5.40;99.90;;;;;;4977654;28;20206;-44
2023/01/17 02:41:59;;;;;;;10.93;10.43;;;5.40;99.90;;;;;;4968613;28;20228;-45
2023/01/17 02:44:25;;;;;;;11.07;10.48;;;5.50;99.90;;;;;;4970665;28;20553;-45
2023/01/17 02:46:54;;;;;;;11.30;10.70;;;5.40;99.90;;;;;;4972392;28;20190;-48
2023/01/17 02:49:23;;;;;;;10.30;9.80;;;5.40;99.90;;;;;;4969671;28;20180;-45
2023/01/17 02:52:04;;;;;;;10.80;10.30;;;5.50;99.90;;;;;;4973251;28;20189;-43
2023/01/17 02:55:00;;;;;;;10.73;10.13;;;5.50;99.90;;;;;;4980170;28;20665;-48
2023/01/17 02:57:53;;;;;;;10.57;9.98;;;5.50;99.90;;;;;;4954578;28;20207;-45
2023/01/17 03:00:33;;;;;;;10.10;9.60;;;5.50;99.90;;;;;;4969005;28;20270;-43
2023/01/17 03:03:37;;;;;;;10.02;9.55;;;5.60;99.90;;;;;;4970668;28;20227;-44
2023/01/17 03:06:10;;;;;;;9.30;8.90;;;5.60;99.90;;;;;;4949345;28;20215;-45
2023/01/17 03:08:38;;;;;;;8.90;8.60;;;5.80;99.90;;;;;;4980688;28;20222;-44
2023/01/17 03:11:07;;;;;;;9.05;8.65;;;5.90;99.90;;;;;;4974389;28;20189;-45
2023/01/17 03:13:33;;;;;;;8.60;8.30;;;6.00;99.90;;;;;;4974940;28;20185;-43
2023/01/17 03:15:59;;;;;;;8.60;8.30;;;6.10;99.90;;;;;;4980385;28;20663;-42
2023/01/17 03:18:24;;;;;;;8.82;8.52;;;6.20;99.90;;;;;;4971901;28;20222;-43
2023/01/17 03:20:50;;;;;;;8.53;8.23;;;6.30;99.90;;;;;;4969943;28;20661;-44
2023/01/17 03:23:15;;;;;;;8.80;8.50;;;6.40;99.90;;;;;;4980041;28;20184;-44
2023/01/17 03:25:41;;;;;;;8.97;8.67;;;6.50;99.50;;;;;;4979306;28;20232;-47
2023/01/17 03:28:07;;;;;;;8.80;8.50;;;6.60;99.10;;;;;;4978896;28;20416;-45
2023/01/17 03:30:32;;;;;;;8.40;8.10;;;6.60;99.40;;;;;;4980249;28;20263;-45
2023/01/17 03:32:58;;;;;;;8.83;8.53;;;6.70;98.60;;;;;;4975194;28;20535;-43
2023/01/17 03:35:23;;;;;;;9.17;8.77;;;6.80;98.20;;;;;;4972424;28;20216;-48
2023/01/17 03:37:49;;;;;;;9.10;8.70;;;6.80;97.40;;;;;;4974525;28;20227;-44
2023/01/17 03:40:15;;;;;;;8.77;8.40;;;6.70;97.30;;;;;;4978575;28;20208;-46
2023/01/17 03:42:41;;;;;;;8.57;8.27;;;6.70;97.10;;;;;;4976922;28;20202;-44
2023/01/17 03:45:07;;;;;;;8.75;8.45;;;6.80;96.70;;;;;;4975897;28;20184;-44
2023/01/17 03:47:34;;;;;;;8.90;8.50;;;6.80;95.90;;;;;;4971777;28;20216;-47
2023/01/17 03:50:00;;;;;;;8.80;8.50;;;6.90;95.70;;;;;;4985272;28;20188;-43
2023/01/17 03:52:25;;;;;;;8.63;8.33;;;6.90;95.80;;;;;;4977817;28;20875;-48
2023/01/17 03:54:51;;;;;;;8.80;8.50;;;6.80;95.60;;;;;;4981496;28;20184;-45
2023/01/17 03:57:17;;;;;;;8.60;8.30;;;6.80;95.70;;;;;;4971293;28;20638;-46
2023/01/17 03:59:42;;;;;;;8.70;8.40;;;6.80;95.10;;;;;;4990268;28;20642;-44
2023/01/17 04:02:08;;;;;;;8.10;7.80;;;6.90;94.90;;;;;;4982254;28;20188;-46
2023/01/17 04:04:33;;;;;;;8.67;8.37;;;6.90;94.60;;;;;;4973839;28;20181;-44
2023/01/17 04:06:59;;;;;;;8.00;7.70;;;6.80;94.80;;;;;;4971874;28;20257;-45
2023/01/17 04:09:24;;;;;;;8.00;7.70;;;6.80;94.40;;;;;;4974030;28;20645;-45
2023/01/17 04:11:52;;;;;;;8.07;7.77;;;6.80;94.20;;;;;;4972791;28;20535;-45
2023/01/17 04:14:17;;;;;;;8.75;8.45;;;6.80;94.30;;;;;;4979541;28;20667;-48
2023/01/17 04:16:43;;;;;;;8.30;8.00;;;6.80;94.40;;;;;;4979932;28;20184;-44
2023/01/17 04:19:12;;;;;;;8.40;8.10;;;6.80;94.40;;;;;;4970547;28;20635;-43
2023/01/17 04:21:38;;;;;;;8.35;8.05;;;6.80;94.50;;;;;;4971311;28;20622;-44
2023/01/17 04:24:04;;;;;;;8.70;8.30;;;6.70;94.30;;;;;;4973187;28;20193;-45
2023/01/17 04:26:29;;;;;;;8.63;8.33;;;6.70;94.10;;;;;;4980306;28;20707;-46
2023/01/17 04:28:55;;;;;;;8.47;8.17;;;6.80;94.20;;;;;;4979057;28;20463;-43
2023/01/17 04:31:20;;;;;;;8.40;8.10;;;6.70;94.30;;;;;;4972512;28;20184;-44
2023/01/17 04:33:46;;;;;;;8.60;8.20;;;6.70;94.50;;;;;;4979929;28;20203;-42
2023/01/17 04:36:11;;;;;;;8.07;7.77;;;6.70;94.30;;;;;;4976178;28;20183;-44
2023/01/17 04:38:37;;;;;;;8.50;8.20;;;6.70;94.10;;;;;;4989429;28;20467;-44
2023/01/17 04:41:03;;;;;;;9.20;8.80;;;6.70;94.20;;;;;;4981091;28;20739;-43
2023/01/17 04:43:28;;;;;;;9.17;8.77;;;6.60;94.30;;;;;;4973240;28;20191;-43
2023/01/17 04:45:58;;;;;;;9.37;8.87;;;6.60;94.20;;;;;;4975267;28;20442;-43
2023/01/17 04:48:24;;;;;;;8.70;8.40;;;6.60;94.20;;;;;;4960230;28;20215;-44
2023/01/17 04:50:50;;;;;;;9.20;8.80;;;6.60;94.00;;;;;;4975424;28;20172;-45
2023/01/17 04:53:16;;;;;;;8.73;8.43;;;6.60;94.00;;;;;;4977929;28;20268;-42
2023/01/17 04:55:45;;;;;;;8.50;8.20;;;6.60;94.40;;;;;;4973438;28;20208;-44
2023/01/17 04:58:11;;;;;;;8.55;8.25;;;6.60;94.10;;;;;;4976614;28;20218;-44
2023/01/17 05:00:36;;;;;;;7.60;7.30;;;6.60;94.30;;;;;;4972069;28;20224;-46
2023/01/17 05:03:02;;;;;;;8.83;8.53;;;6.60;93.90;;;;;;4955548;28;20188;-44
2023/01/17 05:05:28;;;;;;;8.10;7.80;;;6.60;94.00;;;;;;4975595;28;20187;-44
2023/01/17 05:07:55;;;;;;;8.50;8.10;;;6.60;94.00;;;;;;4975043;28;20549;-43
2023/01/17 05:10:21;;;;;;;8.30;8.00;;;6.60;93.90;;;;;;4974351;28;20177;-44
2023/01/17 05:12:57;;;;;;;8.53;8.20;;;6.60;94.00;;;;;;4970176;28;20622;-45
2023/01/17 05:15:24;;;;;;;8.35;8.05;;;6.50;94.00;;;;;;4968832;28;20188;-49
2023/01/17 05:17:51;;;;;;;8.45;8.10;;;6.50;93.80;;;;;;4963537;28;20193;-45
2023/01/17 05:20:18;;;;;;;8.10;7.80;;;6.60;93.70;;;;;;4962066;28;20192;-44
2023/01/17 05:22:46;;;;;;;8.48;8.18;;;6.60;94.10;;;;;;4972357;28;20190;-45
2023/01/17 05:25:11;;;;;;;7.72;7.43;;;6.60;94.10;;;;;;4966225;28;20184;-46
2023/01/17 05:27:37;;;;;;;8.30;8.00;;;6.60;93.70;;;;;;4975171;28;20211;-46
2023/01/17 05:30:04;;;;;;;8.13;7.73;;;6.60;94.00;;;;;;4978408;28;20820;-45
2023/01/17 05:32:29;;;;;;;9.00;8.60;;;6.60;93.50;;;;;;4972370;28;20949;-44
2023/01/17 05:34:55;;;;;;;8.90;8.50;;;6.60;93.30;;;;;;4979935;28;20190;-44
2023/01/17 05:37:21;;;;;;;8.97;8.63;;;6.70;93.40;;;;;;4980485;28;20326;-43
2023/01/17 05:39:46;;;;;;;8.77;8.47;;;6.70;93.40;;;;;;4959405;28;20192;-45
2023/01/17 05:42:12;;;;;;;8.93;8.63;;;6.60;93.00;;;;;;4964974;28;20228;-43
2023/01/17 05:44:37;;;;;;;9.07;8.67;;;6.50;93.20;;;;;;4967834;28;20206;-43
2023/01/17 05:47:03;;;;;;;8.30;8.00;;;6.50;93.30;;;;;;4976384;28;20211;-44
2023/01/17 05:49:28;;;;;;;9.03;8.70;;;6.50;93.50;;;;;;4979980;28;20654;-43
2023/01/17 05:51:54;;;;;;;9.53;8.93;;;6.40;93.50;;;;;;4979737;28;20192;-42
2023/01/17 05:54:20;;;;;;;8.83;8.43;;;6.50;93.50;;;;;;4979933;28;20180;-43
2023/01/17 05:56:45;;;;;;;9.00;8.60;;;6.40;93.60;;;;;;4971761;28;20661;-44
2023/01/17 05:59:11;;;;;;;8.80;8.40;;;6.40;93.70;;;;;;4973365;28;20188;-43
2023/01/17 06:01:36;;;;;;;7.87;7.57;;;6.30;93.90;;;;;;4970715;28;20773;-44
2023/01/17 06:04:02;;;;;;;8.83;8.53;;;6.30;94.10;;;;;;4965097;28;20214;-43
2023/01/17 06:06:28;;;;;;;9.37;8.97;;;6.30;94.20;;;;;;4979998;28;20838;-43
2023/01/17 06:08:53;;;;;;;9.80;9.40;;;6.30;94.10;;;;;;4979366;28;20258;-46
2023/01/17 06:11:19;;;;;;;9.77;9.37;;;6.40;94.00;;;;;;4976031;28;20191;-44
2023/01/17 06:13:46;;;;;;;10.00;9.60;;;6.30;94.00;;;;;;4976959;28;20188;-46
2023/01/17 06:16:12;;;;;;;9.75;9.25;;;6.30;94.30;;;;;;4971470;28;20271;-47
2023/01/17 06:18:38;;;;;;;9.60;9.20;;;6.30;94.50;;;;;;4971336;28;20210;-46
2023/01/17 06:21:03;;;;;;;9.13;8.67;;;6.20;94.50;;;;;;4979870;28;20464;-44
2023/01/17 06:23:29;;;;;;;9.90;9.40;;;6.10;94.60;;;;;;4980089;28;20510;-45
2023/01/17 06:25:55;;;;;;;9.40;9.00;;;6.10;94.80;;;;;;4980086;28;20188;-48
2023/01/17 06:28:22;;;;;;;9.07;8.67;;;6.00;95.00;;;;;;4979581;28;20963;-46
2023/01/17 06:30:48;;;;;;;9.50;9.15;;;6.00;95.10;;;;;;4980061;28;20191;-44
2023/01/17 06:33:14;;;;;;;10.23;9.73;;;5.90;95.10;;;;;;4979786;28;20229;-44
2023/01/17 06:35:47;;;;;;;10.07;9.68;;;6.00;95.30;;;;;;4960066;28;20733;-46
2023/01/17 06:38:12;;;;;;;9.05;8.65;;;6.00;95.10;;;;;;4978695;28;20189;-42
2023/01/17 06:40:38;;;;;;;10.30;9.80;;;6.00;95.20;;;;;;4976151;28;20557;-44
2023/01/17 06:43:05;;;;;;;10.13;9.73;;;6.00;95.20;;;;;;4982569;28;20226;-45
2023/01/17 06:45:32;;;;;;;9.23;8.82;;;5.90;95.50;;;;;;4983276;28;20192;-44
2023/01/17 06:48:03;;;;;;;9.55;9.15;;;5.80;95.50;;;;;;4971795;28;20223;-44
2023/01/17 06:50:30;;;;;;;8.93;8.52;;;5.80;95.60;;;;;;4983078;28;20692;-46
2023/01/17 06:52:58;;;;;;;10.80;10.30;;;5.70;95.70;;;;;;4983280;28;20184;-45
2023/01/17 06:55:27;;;;;;;9.68;9.27;;;5.80;95.80;;;;;;4983455;28;20197;-46
2023/01/17 06:57:54;;;;;;;10.55;10.10;;;5.70;95.70;;;;;;4983077;28;20467;-43
2023/01/17 07:00:20;;;;;;;9.50;9.10;;;5.80;95.80;;;;;;4976546;28;20184;-45
2023/01/17 07:02:48;;;;;;;10.52;10.05;;;5.80;95.70;;;;;;4962278;28;20616;-48
2023/01/17 07:05:16;;;;;;;10.38;9.88;;;5.70;95.80;;;;;;4976969;28;20554;-44
2023/01/17 07:07:42;;;;;;;10.25;9.82;;;5.70;95.90;;;;;;4982833;28;20203;-45
2023/01/17 07:10:08;;;;;;;9.40;9.00;;;5.70;95.80;;;;;;4982798;28;20193;-42
2023/01/17 07:12:34;;;;;;;9.73;9.30;;;5.80;95.50;;;;;;4982693;28;20218;-43
2023/01/17 07:14:59;;;;;;;10.30;9.90;;;5.80;95.60;;;;;;4982768;28;20176;-46
2023/01/17 07:17:25;;;;;;;9.90;9.50;;;5.80;95.70;;;;;;4979594;28;20271;-45
2023/01/17 07:19:50;;;;;;;9.53;9.13;;;5.80;95.50;;;;;;4964836;28;20199;-43
2023/01/17 07:22:16;;;;;;;10.27;9.87;;;5.80;95.60;;;;;;4981871;28;20254;-47
2023/01/17 07:24:42;;;;;;;9.90;9.40;;;5.80;95.30;;;;;;4982654;28;20186;-45
2023/01/17 07:27:07;;;;;;;9.27;8.87;;;5.80;95.30;;;;;;4969967;28;20257;-45
2023/01/17 07:29:33;;;;;;;10.67;10.17;;;5.70;94.90;;;;;;4982989;28;20196;-42
2023/01/17 07:31:59;;;;;;;9.57;9.07;;;5.70;95.00;;;;;;4982764;28;20215;-43
2023/01/17 07:34:24;;;;;;;9.87;9.40;;;5.70;94.70;;;;;;4981691;28;20267;-46
2023/01/17 07:36:50;;;;;;;9.10;8.70;;;5.70;94.80;;;;;;4982405;28;20274;-45
2023/01/17 07:39:16;;;;;;;9.77;9.37;;;5.70;94.90;;;;;;4970435;28;20191;-43
2023/01/17 07:41:41;;;;;;;9.73;9.33;;;5.70;94.80;;;;;;4973691;28;20321;-44
2023/01/17 07:44:09;;;;;;;9.20;8.80;;;5.70;94.70;;;;;;4977203;28;20665;-45
2023/01/17 07:46:35;;;;;;;9.70;9.20;;;5.70;94.80;;;;;;4982179;28;20267;-46
2023/01/17 07:49:01;;;;;;;9.20;8.80;;;5.70;94.80;;;;;;4970226;28;20299;-45
2023/01/17 07:51:27;;;;;;;10.53;10.03;;;5.60;94.90;;;;;;4982306;28;20183;-47
2023/01/17 07:53:52;;;;;;;10.87;10.37;;;5.70;94.80;;;;;;4981873;28;21140;-44
2023/01/17 07:56:18;;;;;;;10.07;9.67;;;5.60;94.80;;;;;;4982257;28;20630;-49
2023/01/17 07:58:43;;;;;;;9.97;9.47;;;5.60;95.00;;;;;;4974860;28;20188;-46
2023/01/17 08:01:11;;;;;;;10.13;9.73;;;5.70;94.90;;;;;;4977888;28;20606;-43
2023/01/17 08:03:41;;;;;;;10.20;9.80;;;5.60;94.80;;;;;;4982143;28;20730;-44
2023/01/17 08:06:16;;;;;;;9.52;9.13;;;5.60;95.00;;;;;;4982042;28;20249;-44
2023/01/17 08:08:41;;;;;;;9.85;9.45;;;5.50;94.90;;;;;;4970456;28;20681;-44
2023/01/17 08:11:07;;;;;;;9.33;8.83;;;5.40;95.10;;;;;;4982235;28;20199;-46
2023/01/17 08:13:32;;;;;;;10.37;9.97;;;5.40;95.20;;;;;;4981714;28;20195;-43
2023/01/17 08:16:01;;;;;;;9.80;9.40;;;5.30;95.20;;;;;;4981956;28;20192;-46
2023/01/17 08:18:27;;;;;;;10.20;9.70;;;5.40;95.10;;;;;;4981841;28;20221;-48
2023/01/17 08:20:53;;;;;;;10.85;10.35;;;5.40;95.00;;;;;;4981592;28;20211;-46
2023/01/17 08:23:19;;;;;;;10.50;10.00;;;5.30;95.20;;;;;;4963048;28;20226;-46
2023/01/17 08:25:44;;;;;;;11.00;10.50;;;5.40;94.90;;;;;;4981776;28;20429;-44
2023/01/17 08:28:10;;;;;;;10.90;10.40;;;5.40;95.00;;;;;;4981201;28;20477;-44
2023/01/17 08:30:36;;;;;;;9.83;9.33;;;5.30;94.80;;;;;;4981607;28;20646;-44
2023/01/17 08:33:01;;;;;;;10.80;10.30;;;5.30;94.60;;;;;;4981328;28;20440;-43
2023/01/17 08:35:27;;;;;;;11.00;10.40;;;5.40;94.60;;;;;;4961364;28;20196;-46
2023/01/17 08:37:54;;;;;;;10.30;9.80;;;5.50;94.50;;;;;;4975587;28;20593;-47
2023/01/17 08:40:20;;;;;;;10.40;9.90;;;5.80;93.80;;;;;;4981239;28;20423;-43
2023/01/17 08:42:59;;;;;;;9.65;9.15;;;6.20;93.30;;;;;;4981711;28;20733;-45
2023/01/17 08:45:26;;;;;;;10.60;10.20;;;6.60;92.30;;;;;;4981275;28;20176;-44
2023/01/17 08:47:51;;;;;;;10.27;9.77;;;6.80;91.30;;;;;;4978671;28;20985;-44
2023/01/17 08:50:20;;;;;;;9.90;9.50;;;6.80;91.20;;;;;;4972657;28;20426;-43
2023/01/17 08:52:49;;;;;;;9.40;9.00;;;6.80;91.00;;;;;;4981358;28;20631;-43
2023/01/17 08:55:15;;;;;;;10.30;9.85;;;6.60;91.10;;;;;;4981045;28;20176;-44
2023/01/17 08:57:41;;;;;;;10.43;10.02;;;6.20;91.90;;;;;;4981180;28;20186;-44
2023/01/17 09:00:08;;;;;;;11.00;10.50;;;6.10;92.50;;;;;;4974498;28;20196;-45
2023/01/17 09:02:33;;;;;;;10.90;10.40;;;6.00;92.80;;;;;;4979811;28;20188;-46
2023/01/17 09:04:59;;;;;;;10.77;10.20;;;5.90;93.10;;;;;;4980657;28;20183;-45
2023/01/17 09:07:25;;;;;;;10.23;9.73;;;5.90;93.20;;;;;;4979459;28;20239;-42
2023/01/17 09:09:52;;;;;;;10.98;10.48;;;6.10;93.00;;;;;;4980779;28;20263;-42
2023/01/17 09:12:19;;;;;;;10.45;10.05;;;6.10;92.60;;;;;;4980624;28;20184;-46
2023/01/17 09:14:45;;;;;;;10.70;10.10;;;6.30;92.20;;;;;;4980605;28;20184;-42
2023/01/17 09:17:10;;;;;;;10.90;10.40;;;6.80;91.50;;;;;;4966999;28;20176;-45
2023/01/17 09:19:38;;;;;;;9.93;9.33;;;6.80;90.90;;;;;;4980389;28;20849;-45
2023/01/17 09:22:05;;;;;;;10.40;9.90;;;6.70;90.80;;;;;;4974941;28;20629;-45
2023/01/17 09:24:31;;;;;;;11.20;10.60;;;6.50;90.60;;;;;;4980360;28;20430;-42
2023/01/17 09:26:57;;;;;;;11.57;10.87;;;6.70;91.20;;;;;;4980317;28;20789;-43
2023/01/17 09:29:22;;;;;;;10.33;9.83;;;7.30;90.30;;;;;;4980269;28;20427;-47
2023/01/17 09:31:48;;;;;;;10.53;10.13;;;8.00;88.10;;;;;;4980822;28;20306;-46
2023/01/17 09:34:14;;;;;;;10.13;9.73;;;8.80;81.40;;;;;;4980828;28;20339;-44
2023/01/17 09:36:40;;;;;;;10.93;10.40;;;9.10;75.30;;;;;;4975813;28;20187;-46
2023/01/17 09:39:07;;;;;;;11.50;10.93;;;9.30;72.20;;;;;;4968375;28;20192;-46
2023/01/17 09:41:45;;;;;;;10.23;9.83;;;9.30;70.50;;;;;;4967394;28;21240;-46
2023/01/17 09:44:41;;;;;;;10.87;10.37;;;9.60;69.40;;;;;;4980344;28;20506;-44
2023/01/17 09:47:24;;;;;;;10.70;10.20;;;9.70;65.00;;;;;;4939116;28;20550;-45
2023/01/17 09:49:55;;;;;;;10.70;10.30;;;9.70;64.00;;;;;;4967826;28;20771;-46
2023/01/17 09:52:23;;;;;;;11.07;10.57;;;9.90;64.90;;;;;;4978816;28;20419;-44
2023/01/17 09:54:49;;;;;;;11.40;10.83;;;9.40;62.60;;;;;;4979489;28;20433;-45
2023/01/17 09:57:45;;;;;;;11.40;10.90;;;9.00;65.30;;;;;;4979906;28;20764;-44
2023/01/17 10:00:23;;;;;;;11.10;10.40;;;9.10;66.60;;;;;;4973488;28;20831;-43
2023/01/17 10:03:24;;;;;;;11.53;10.93;;;9.50;64.70;;;;;;4980168;28;20436;-45
2023/01/17 10:06:21;;;;;;;10.50;10.03;;;9.50;62.40;;;;;;4980005;28;20579;-42
2023/01/17 10:09:24;;;;;;;10.83;10.33;;;10.10;59.90;;;;;;4965790;28;20468;-46
2023/01/17 10:11:52;;;;;;;10.40;10.00;;;10.20;59.00;;;;;;4979388;28;20983;-43
2023/01/17 10:14:48;;;;;;;9.67;9.27;;;10.30;57.40;;;;;;4978212;28;20775;-47
2023/01/17 10:17:49;;;;;;;9.60;9.10;;;10.40;56.50;;;;;;4962499;28;20464;-45
2023/01/17 10:20:24;;;;;;;10.20;9.70;;;10.50;56.10;;;;;;4979638;28;20433;-44
2023/01/17 10:23:20;;;;;;;10.37;9.87;;;11.10;55.20;;;;;;4979909;28;20423;-46
2023/01/17 10:26:01;;;;;;;11.10;10.60;;;11.50;53.00;;;;;;4979863;28;20411;-45
2023/01/17 10:28:37;;;;;;;10.30;9.80;;;11.90;53.10;;;;;;4979983;28;20562;-44
2023/01/17 10:31:09;;;;;;;10.90;10.40;;;11.50;51.00;;;;;;4979827;28;20414;-47
2023/01/17 10:33:51;;;;;;;10.80;10.40;;;10.60;51.50;;;;;;4979790;28;20788;-43
2023/01/17 10:36:28;;;;;;;10.73;10.23;;;10.20;52.80;;;;;;4972598;28;20434;-45
2023/01/17 10:38:59;;;;;;;9.80;9.40;;;10.40;52.60;;;;;;4967508;28;20441;-47
2023/01/17 10:41:27;;;;;;;10.83;10.33;;;10.10;53.80;;;;;;4979369;28;20918;-44
2023/01/17 10:44:02;;;;;;;9.37;9.00;;;9.40;54.50;;;;;;4964116;28;20446;-45
2023/01/17 10:46:37;;;;;;;11.23;10.60;;;8.60;55.20;;;;;;4974204;28;20545;-43
2023/01/17 10:49:03;;;;;;;10.67;10.27;;;8.30;56.90;;;;;;4970118;28;20471;-44
2023/01/17 10:51:51;;;;;;;10.70;10.20;;;8.00;58.50;;;;;;4975746;28;20423;-44
2023/01/17 10:55:02;;;;;;;10.77;10.27;;;7.80;59.10;;;;;;4979866;28;20423;-46
2023/01/17 10:57:36;;;;;;;10.73;10.23;;;7.50;59.80;;;;;;4979042;28;20691;-45
2023/01/17 11:00:30;;;;;;;9.20;8.80;;;7.40;61.10;;;;;;4969184;28;20429;-46
2023/01/17 11:02:56;;;;;;;10.00;9.60;;;7.30;60.90;;;;;;4959028;28;20458;-44
2023/01/17 11:05:27;;;;;;;10.70;10.10;;;7.40;61.70;;;;;;4970142;28;20526;-46
2023/01/17 11:08:04;;;;;;;10.50;10.00;;;7.40;61.50;;;;;;4978872;28;20463;-45
2023/01/17 11:10:35;;;;;;;11.03;10.33;;;7.30;61.70;;;;;;4979846;28;20502;-44
2023/01/17 11:13:03;;;;;;;9.80;9.40;;;7.20;62.30;;;;;;4975234;28;20972;-47
2023/01/17 11:15:32;;;;;;;10.20;9.80;;;7.10;62.90;;;;;;4979540;28;20419;-46
2023/01/17 11:18:05;;;;;;;10.03;9.63;;;7.10;62.30;;;;;;4978909;28;20441;-46
2023/01/17 11:20:35;;;;;;;9.80;9.40;;;7.00;62.80;;;;;;4973378;28;20454;-46
2023/01/17 11:23:13;;;;;;;10.70;10.20;;;7.00;64.80;;;;;;4979997;28;20445;-48
2023/01/17 11:25:47;;;;;;;9.30;9.00;;;7.00;63.40;;;;;;4982752;28;20414;-48
2023/01/17 11:28:20;;;;;;;9.40;9.00;;;7.00;63.80;;;;;;4982575;28;20469;-45
2023/01/17 11:30:58;;;;;;;10.23;9.83;;;7.00;64.60;;;;;;4982547;28;20411;-49
2023/01/17 11:33:44;;;;;;;9.90;9.50;;;7.00;63.70;;;;;;4982952;28;20465;-46
2023/01/17 11:36:29;;;;;;;10.40;9.90;;;6.90;63.10;;;;;;4973158;28;20424;-49
2023/01/17 11:39:04;;;;;;;10.10;9.60;;;7.00;62.80;;;;;;4977300;28;20726;-46
2023/01/17 11:41:40;;;;;;;10.20;9.80;;;7.10;63.30;;;;;;4971979;28;20462;-45
2023/01/17 11:44:27;;;;;;;10.20;9.80;;;7.30;62.50;;;;;;4982400;28;20418;-45
2023/01/17 11:47:18;;;;;;;10.70;10.30;;;7.20;60.50;;;;;;4982543;28;21018;-44
2023/01/17 11:49:48;;;;;;;10.53;10.03;;;7.40;60.20;;;;;;4974016;28;20919;-45
2023/01/17 11:52:31;;;;;;;10.60;10.20;;;7.60;59.40;;;;;;4982323;28;20423;-48
2023/01/17 11:54:57;;;;;;;9.97;9.57;;;7.40;58.30;;;;;;4982471;28;20414;-47
2023/01/17 11:57:22;;;;;;;9.03;8.63;;;7.20;58.10;;;;;;4982336;28;20419;-47
2023/01/17 11:59:49;;;;;;;8.67;8.37;;;7.10;58.80;;;;;;4977589;28;20658;-47
2023/01/17 12:02:41;;;;;;;9.57;9.10;;;7.00;58.80;;;;;;4982063;28;20184;-47
2023/01/17 12:05:07;;;;;;;10.77;10.27;;;7.00;59.60;;;;;;4975180;28;20819;-44
2023/01/17 12:07:35;;;;;;;10.50;10.00;;;6.80;59.10;;;;;;4982023;28;20458;-44
2023/01/17 12:10:08;;;;;;;10.03;9.63;;;6.90;60.70;;;;;;4982143;28;20696;-44
2023/01/17 12:15:59;;;;;;;9.83;9.33;;;6.90;60.10;;;;;;4982148;28;20422;-45
2023/01/17 12:18:48;;;;;;;9.73;9.33;;;7.10;59.80;;;;;;4961784;28;20420;-43
2023/01/17 12:21:19;;;;;;;9.73;9.33;;;7.50;58.80;;;;;;4975978;28;20445;-45
2023/01/17 12:24:11;;;;;;;10.43;10.03;;;8.00;58.70;;;;;;4981799;28;20433;-48
2023/01/17 12:26:44;;;;;;;10.07;9.57;;;8.30;56.40;;;;;;4981442;28;20423;-46
2023/01/17 12:29:47;;;;;;;10.77;10.27;;;8.00;56.50;;;;;;4981433;28;20563;-49
2023/01/17 12:32:29;;;;;;;10.93;10.33;;;7.60;57.70;;;;;;4981186;28;20499;-44
2023/01/17 12:35:13;;;;;;;11.07;10.47;;;7.50;58.30;;;;;;4979058;28;20451;-44
2023/01/17 12:37:42;;;;;;;11.00;10.43;;;7.40;59.10;;;;;;4975529;28;20423;-44
2023/01/17 12:40:33;;;;;;;9.97;9.47;;;7.80;59.20;;;;;;4970770;28;20427;-44
2023/01/17 12:43:10;;;;;;;10.50;9.80;;;8.60;57.70;;;;;;4969809;28;20544;-47
2023/01/17 12:45:41;;;;;;;10.83;10.33;;;9.60;55.30;;;;;;4981225;28;20441;-44
2023/01/17 12:48:17;;;;;;;11.13;10.60;;;10.20;52.40;;;;;;4975208;28;21191;-44
2023/01/17 12:51:08;;;;;;;10.50;9.97;;;10.70;50.80;;;;;;4969709;28;20437;-45
2023/01/17 12:53:53;;;;;;;9.93;9.53;;;11.40;49.40;;;;;;4980923;28;20415;-48
2023/01/17 12:56:36;;;;;;;10.87;10.37;;;12.10;46.90;;;;;;4981053;28;20456;-49
2023/01/17 12:59:33;;;;;;;10.50;10.00;;;11.70;45.30;;;;;;4971715;28;20429;-47
2023/01/17 13:02:03;;;;;;;10.50;10.07;;;12.30;46.00;;;;;;4977081;28;20468;-44
2023/01/17 13:04:49;;;;;;;11.37;10.87;;;12.80;43.80;;;;;;4973354;28;20769;-46
2023/01/17 13:07:31;;;;;;;10.33;9.93;;;13.30;43.20;;;;;;4979515;28;20427;-46
2023/01/17 13:10:27;;;;;;;10.50;10.07;;;13.30;41.00;;;;;;4980814;28;20529;-46
2023/01/17 13:12:57;;;;;;;11.00;10.60;;;13.30;42.00;;;;;;4969396;28;20443;-45
2023/01/17 13:15:27;;;;;;;11.40;10.80;;;13.20;41.20;;;;;;4979854;28;20765;-49
2023/01/17 13:18:10;;;;;;;10.83;10.33;;;13.40;40.00;;;;;;4980762;28;20700;-43
2023/01/17 13:20:51;;;;;;;9.97;9.50;;;13.20;39.20;;;;;;4970010;28;20423;-45
2023/01/17 13:23:51;;;;;;;11.50;11.00;;;13.30;39.00;;;;;;4980549;28;20443;-44
2023/01/17 13:26:43;;;;;;;12.00;11.40;;;13.30;39.50;;;;;;4976430;28;20984;-43
2023/01/17 13:29:35;;;;;;;11.43;10.93;;;12.50;39.90;;;;;;4980183;28;20457;-44
2023/01/17 13:32:28;;;;;;;12.10;11.50;;;12.40;40.30;;;;;;4962775;28;20489;-43
2023/01/17 13:35:21;;;;;;;11.87;11.37;;;12.10;40.70;;;;;;4980459;28;20420;-42
2023/01/17 13:38:29;;;;;;;10.20;9.80;;;12.30;40.70;;;;;;4978647;28;20433;-44
2023/01/17 13:41:03;;;;;;;11.30;10.80;;;12.50;40.30;;;;;;4964962;28;20482;-45
2023/01/17 13:43:38;;;;;;;10.60;10.20;;;12.40;40.40;;;;;;4972596;28;20422;-49
2023/01/17 13:46:05;;;;;;;11.20;10.70;;;12.40;39.50;;;;;;4959136;28;20997;-47
2023/01/17 13:48:39;;;;;;;10.77;10.30;;;12.50;39.80;;;;;;4962481;28;20470;-45
2023/01/17 13:51:09;;;;;;;10.00;9.60;;;12.00;40.10;;;;;;4979946;28;20543;-44
2023/01/17 13:53:35;;;;;;;10.20;9.80;;;11.40;41.50;;;;;;4975397;28;20510;-45
2023/01/17 13:56:08;;;;;;;11.00;10.50;;;11.30;42.20;;;;;;4980802;28;20450;-43
2023/01/17 13:58:57;;;;;;;11.97;11.13;;;11.50;42.50;;;;;;4976156;28;20487;-46
2023/01/17 14:01:22;;;;;;;10.67;10.17;;;11.60;42.10;;;;;;4979818;28;20424;-44
2023/01/17 14:03:51;;;;;;;11.30;10.80;;;12.00;42.60;;;;;;4965604;28;20439;-44
2023/01/17 14:06:36;;;;;;;10.63;10.13;;;12.00;40.70;;;;;;4973449;28;20616;-50
2023/01/17 14:09:17;;;;;;;10.20;9.80;;;12.40;40.20;;;;;;4979630;28;20811;-44
2023/01/17 14:11:55;;;;;;;10.70;10.20;;;12.20;41.40;;;;;;4978261;28;20437;-47
2023/01/17 14:14:39;;;;;;;10.83;10.40;;;12.50;40.70;;;;;;4979876;28;20456;-45
2023/01/17 14:17:17;;;;;;;10.70;10.30;;;12.70;39.80;;;;;;4980139;28;21216;-44
2023/01/17 14:19:45;;;;;;;10.80;10.30;;;12.50;39.10;;;;;;4969745;28;20511;-46
2023/01/17 14:22:19;;;;;;;11.20;10.60;;;12.00;38.60;;;;;;4979983;28;20410;-44
2023/01/17 14:25:09;;;;;;;10.97;10.27;;;11.90;40.00;;;;;;4980225;28;20406;-48
2023/01/17 14:27:41;;;;;;;10.70;10.20;;;11.80;40.20;;;;;;4979704;28;21264;-45
2023/01/17 14:30:27;;;;;;;10.67;10.17;;;11.60;41.40;;;;;;4979909;28;20420;-44
2023/01/17 14:33:04;;;;;;;11.30;10.80;;;11.50;42.70;;;;;;4979665;28;20457;-44
2023/01/17 14:35:34;;;;;;;10.70;10.30;;;11.30;42.30;;;;;;4978675;28;20414;-43